Terminal Aerodrome Forecast
Issued by NWS

Current Version | Previous Version | Text Only | Print | Product List | Glossary On
Versions: 1 2 3 4 5 6 7 8 9 10 11 12 13 14 15 16 17
000
FTAK31 PANC 131145
TAFAHO
TAF
PAHO 131145Z 1312/1412 07014KT P6SM -RA SCT025 OVC035
      TEMPO 1312/1315 4SM RA BKN025 OVC035
     FM131700 14009KT P6SM VCSH SCT030 BKN050
     FM132300 18007KT P6SM SCT045 BKN070=

USA.gov is the U.S. government's official web portal to all federal, state and local government web resources and services.